Time;durP1;ratioP1;P1;durP2;ratioP2;P2;SDS_P1;SDS_P2;PMS_P1;PMS_P2;Temp;Humidity;BMP_temperature;BMP_pressure;BME280_temperature;BME280_humidity;BME280_pressure;Samples;Min_cycle;Max_cycle;Signal;HPM_P1;HPM_P2
2023/03/29 00:00:12;;;;;;;9.38;4.40;;;16.50;53.20;;;;;;5082725;28;20219;-57
2023/03/29 00:02:46;;;;;;;9.70;4.72;;;16.50;53.10;;;;;;5074722;28;20206;-56
2023/03/29 00:05:21;;;;;;;11.63;5.57;;;16.60;53.10;;;;;;5094013;28;20247;-57
2023/03/29 00:07:53;;;;;;;11.68;4.00;;;16.70;53.00;;;;;;5086357;28;20447;-57
2023/03/29 00:10:25;;;;;;;9.18;3.92;;;16.80;52.90;;;;;;5093646;28;20194;-57
2023/03/29 00:12:57;;;;;;;11.32;4.82;;;16.90;52.80;;;;;;5080830;28;20187;-58
2023/03/29 00:15:28;;;;;;;8.38;4.15;;;17.00;52.80;;;;;;5113891;28;20205;-57
2023/03/29 00:17:59;;;;;;;8.48;4.30;;;17.10;52.70;;;;;;5113887;28;20201;-56
2023/03/29 00:20:30;;;;;;;9.57;4.47;;;17.10;52.60;;;;;;5114798;28;20190;-57
2023/03/29 00:23:00;;;;;;;8.75;4.30;;;17.20;52.50;;;;;;5113558;28;20716;-57
2023/03/29 00:25:31;;;;;;;6.90;3.55;;;17.30;52.40;;;;;;5114816;28;20217;-58
2023/03/29 00:28:04;;;;;;;7.50;3.97;;;17.30;52.30;;;;;;5077613;28;20227;-56
2023/03/29 00:30:34;;;;;;;8.70;3.92;;;17.40;52.20;;;;;;5093197;28;20201;-57
2023/03/29 00:33:06;;;;;;;7.72;4.00;;;17.50;52.10;;;;;;5093483;28;20205;-57
2023/03/29 00:35:39;;;;;;;10.25;3.63;;;17.50;52.00;;;;;;5093417;28;20202;-59
2023/03/29 00:38:10;;;;;;;9.00;3.88;;;17.60;51.90;;;;;;5093435;28;20209;-57
2023/03/29 00:40:45;;;;;;;6.63;3.45;;;17.60;51.80;;;;;;5088340;28;20187;-57
2023/03/29 00:43:18;;;;;;;7.90;4.07;;;17.60;51.70;;;;;;5091678;28;20198;-57
2023/03/29 00:45:49;;;;;;;8.57;3.80;;;17.70;51.70;;;;;;5093071;28;20555;-58
2023/03/29 00:48:22;;;;;;;6.50;3.53;;;17.70;51.60;;;;;;5086347;28;20223;-58
2023/03/29 00:50:57;;;;;;;7.10;3.60;;;17.70;51.50;;;;;;5092818;28;20282;-57
2023/03/29 00:53:32;;;;;;;9.82;3.95;;;17.70;51.50;;;;;;5112245;28;20185;-57
2023/03/29 00:56:06;;;;;;;8.57;3.53;;;17.80;51.50;;;;;;5108153;28;20197;-58
2023/03/29 00:58:44;;;;;;;9.07;3.90;;;17.80;51.40;;;;;;5112568;28;20213;-57
2023/03/29 01:01:18;;;;;;;6.88;3.33;;;17.80;51.40;;;;;;5113451;28;20661;-58
2023/03/29 01:03:55;;;;;;;7.40;3.47;;;17.80;51.30;;;;;;5113718;28;20197;-58
2023/03/29 01:06:28;;;;;;;7.35;3.17;;;17.90;51.30;;;;;;5112828;28;20189;-58
2023/03/29 01:09:02;;;;;;;5.75;2.90;;;17.90;51.30;;;;;;5112616;28;20221;-58
2023/03/29 01:11:39;;;;;;;7.53;3.22;;;17.90;51.20;;;;;;5113432;28;20535;-57
2023/03/29 01:14:18;;;;;;;7.15;3.53;;;17.90;51.20;;;;;;5113293;28;20688;-58
2023/03/29 01:16:49;;;;;;;5.28;3.10;;;18.00;51.20;;;;;;5112825;28;20194;-57
2023/03/29 01:19:23;;;;;;;6.68;3.55;;;18.00;51.20;;;;;;5113311;28;20296;-57
2023/03/29 01:22:02;;;;;;;5.28;2.65;;;18.00;51.20;;;;;;5113409;28;20215;-57
2023/03/29 01:24:50;;;;;;;6.57;3.30;;;18.00;51.20;;;;;;5112530;28;20228;-57
2023/03/29 01:27:24;;;;;;;7.40;3.08;;;18.10;51.30;;;;;;5093703;28;20205;-57
2023/03/29 01:30:03;;;;;;;10.13;3.25;;;18.10;51.20;;;;;;5092079;28;20218;-57
2023/03/29 01:32:36;;;;;;;6.40;2.53;;;18.10;51.20;;;;;;5092302;28;20225;-58
2023/03/29 01:35:11;;;;;;;7.75;3.25;;;18.20;51.30;;;;;;5092199;28;20209;-57
2023/03/29 01:37:47;;;;;;;5.97;2.60;;;18.20;51.30;;;;;;5092380;28;20289;-57
2023/03/29 01:40:18;;;;;;;6.10;3.28;;;18.20;51.20;;;;;;5092818;28;20218;-57
2023/03/29 01:42:56;;;;;;;7.00;3.40;;;18.30;51.20;;;;;;5092615;28;20202;-58
2023/03/29 01:45:33;;;;;;;6.30;3.25;;;18.30;51.10;;;;;;5092587;28;20190;-58
2023/03/29 01:48:09;;;;;;;8.50;2.95;;;18.30;51.10;;;;;;5084127;28;20218;-57
2023/03/29 01:50:45;;;;;;;4.72;2.55;;;18.40;51.10;;;;;;5072831;28;20926;-55
2023/03/29 01:53:23;;;;;;;5.68;2.92;;;18.40;51.20;;;;;;5080832;28;20190;-58
2023/03/29 01:56:03;;;;;;;5.63;3.30;;;18.40;51.00;;;;;;5073623;28;20199;-57
2023/03/29 01:58:39;;;;;;;5.75;2.40;;;18.40;50.80;;;;;;5091929;28;20202;-57
2023/03/29 02:01:16;;;;;;;4.78;2.85;;;18.40;50.80;;;;;;5076396;28;20267;-55
2023/03/29 02:03:53;;;;;;;4.88;2.42;;;18.40;50.70;;;;;;5088798;28;20973;-57
2023/03/29 02:06:26;;;;;;;6.72;3.00;;;18.40;50.70;;;;;;5080560;28;20195;-58
2023/03/29 02:08:57;;;;;;;6.57;2.83;;;18.40;50.70;;;;;;5089008;28;20701;-57
2023/03/29 02:11:29;;;;;;;5.13;2.92;;;18.50;50.80;;;;;;5092339;28;20198;-58
2023/03/29 02:13:59;;;;;;;5.95;2.47;;;18.40;50.70;;;;;;5091382;28;20186;-57
2023/03/29 02:16:36;;;;;;;4.25;2.40;;;18.40;50.70;;;;;;5091357;28;20205;-58
2023/03/29 02:19:07;;;;;;;5.57;2.35;;;18.50;50.80;;;;;;5090767;28;20237;-57
2023/03/29 02:21:42;;;;;;;6.00;2.75;;;18.50;50.80;;;;;;5091954;28;20194;-57
2023/03/29 02:24:16;;;;;;;5.53;2.70;;;18.50;50.80;;;;;;5091901;28;20205;-57
2023/03/29 02:26:47;;;;;;;5.78;2.40;;;18.50;50.80;;;;;;5082198;28;20194;-58
2023/03/29 02:29:18;;;;;;;5.30;2.38;;;18.60;51.20;;;;;;5090112;28;20224;-58
2023/03/29 02:31:56;;;;;;;4.43;2.60;;;18.60;51.30;;;;;;5090543;28;20194;-57
2023/03/29 02:34:30;;;;;;;4.15;2.30;;;18.60;51.30;;;;;;5111910;28;20197;-57
2023/03/29 02:37:05;;;;;;;5.13;2.72;;;18.60;51.20;;;;;;5110859;28;20201;-57
2023/03/29 02:39:37;;;;;;;4.32;2.17;;;18.60;51.20;;;;;;5111303;28;20316;-58
2023/03/29 02:42:08;;;;;;;5.70;2.63;;;18.60;51.20;;;;;;5106175;28;20190;-56
2023/03/29 02:44:42;;;;;;;5.88;2.63;;;18.70;51.20;;;;;;5073739;28;20186;-57
2023/03/29 02:47:21;;;;;;;6.30;2.80;;;18.70;51.20;;;;;;5071586;28;20201;-56
2023/03/29 02:49:52;;;;;;;6.47;2.70;;;18.70;51.20;;;;;;5090393;28;20300;-57
2023/03/29 02:52:26;;;;;;;5.47;2.10;;;18.70;51.20;;;;;;5091012;28;20209;-57
2023/03/29 02:54:59;;;;;;;4.95;2.20;;;18.80;51.20;;;;;;5091498;28;20189;-58
2023/03/29 02:57:31;;;;;;;3.97;1.90;;;18.70;51.10;;;;;;5078317;28;20305;-57
2023/03/29 03:00:08;;;;;;;4.90;2.55;;;18.80;51.10;;;;;;5091520;28;20233;-57
2023/03/29 03:02:41;;;;;;;4.15;2.47;;;18.80;51.10;;;;;;5091048;28;20194;-57
2023/03/29 03:05:12;;;;;;;4.88;2.35;;;18.80;51.00;;;;;;5091124;28;20665;-57
2023/03/29 03:07:43;;;;;;;3.85;2.05;;;18.80;50.90;;;;;;5090342;28;20186;-56
2023/03/29 03:10:13;;;;;;;3.83;2.17;;;18.80;50.90;;;;;;5090595;28;20229;-57
2023/03/29 03:12:44;;;;;;;6.43;2.53;;;18.80;50.80;;;;;;5090794;28;20186;-52
2023/03/29 03:15:15;;;;;;;5.40;2.40;;;18.90;50.90;;;;;;5090622;28;20201;-58
2023/03/29 03:17:48;;;;;;;3.78;2.17;;;18.80;50.80;;;;;;5090869;28;20186;-58
2023/03/29 03:20:21;;;;;;;4.95;2.20;;;18.90;50.80;;;;;;5090491;28;20264;-57
2023/03/29 03:22:56;;;;;;;4.85;2.10;;;18.90;50.80;;;;;;5090660;28;20715;-58
2023/03/29 03:25:27;;;;;;;5.43;2.13;;;18.90;50.80;;;;;;5090832;28;20196;-57
2023/03/29 03:27:58;;;;;;;4.75;2.25;;;18.90;50.80;;;;;;5076900;28;20194;-58
2023/03/29 03:30:29;;;;;;;5.30;2.33;;;18.90;50.80;;;;;;5094206;28;20210;-58
2023/03/29 03:33:01;;;;;;;4.13;2.33;;;18.90;50.70;;;;;;5094726;28;20658;-57
2023/03/29 03:35:32;;;;;;;3.65;2.22;;;18.90;50.80;;;;;;5094449;28;20209;-58
2023/03/29 03:38:03;;;;;;;3.92;2.22;;;18.90;50.70;;;;;;5094382;28;20186;-58
2023/03/29 03:40:33;;;;;;;5.63;1.88;;;18.90;50.80;;;;;;5095184;28;20194;-57
2023/03/29 03:43:04;;;;;;;4.90;2.28;;;18.90;50.80;;;;;;5090771;28;20185;-58
2023/03/29 03:45:35;;;;;;;3.35;2.22;;;18.90;50.90;;;;;;5114954;28;20197;-58
2023/03/29 03:48:08;;;;;;;3.22;2.20;;;18.90;50.90;;;;;;5104356;28;20208;-57
2023/03/29 03:50:39;;;;;;;5.00;2.25;;;19.00;51.00;;;;;;5094972;28;20198;-58
2023/03/29 03:53:09;;;;;;;4.15;2.30;;;19.00;51.00;;;;;;5094135;28;20615;-58
2023/03/29 03:55:40;;;;;;;3.70;1.90;;;19.00;51.00;;;;;;5094093;28;20205;-57
2023/03/29 03:58:11;;;;;;;4.18;2.05;;;19.00;51.00;;;;;;5078993;28;20186;-58
2023/03/29 04:00:41;;;;;;;3.78;2.00;;;19.10;51.10;;;;;;5094644;28;20209;-57
2023/03/29 04:03:14;;;;;;;6.78;2.47;;;19.10;51.10;;;;;;5093669;28;20194;-57
2023/03/29 04:05:46;;;;;;;4.45;2.17;;;19.10;51.20;;;;;;5091625;28;20226;-58
2023/03/29 04:08:17;;;;;;;4.60;2.00;;;19.10;51.10;;;;;;5078634;28;20206;-58
2023/03/29 04:10:55;;;;;;;4.45;2.00;;;19.10;51.20;;;;;;5093507;28;20198;-58
2023/03/29 04:13:25;;;;;;;3.50;2.08;;;19.20;51.20;;;;;;5094258;28;20641;-58
2023/03/29 04:15:57;;;;;;;4.82;2.08;;;19.20;51.20;;;;;;5093612;28;20194;-57
2023/03/29 04:18:29;;;;;;;5.43;2.15;;;19.20;51.20;;;;;;5093922;28;20259;-58
2023/03/29 04:21:01;;;;;;;5.72;2.40;;;19.20;51.20;;;;;;5092796;28;20190;-57
2023/03/29 04:23:31;;;;;;;6.30;2.08;;;19.20;51.10;;;;;;5093201;28;20195;-56
2023/03/29 04:26:02;;;;;;;4.32;2.30;;;19.30;51.10;;;;;;5090828;28;20685;-58
2023/03/29 04:28:33;;;;;;;4.88;2.38;;;19.40;51.00;;;;;;5079080;28;20229;-58
2023/03/29 04:31:03;;;;;;;4.03;1.95;;;19.40;50.90;;;;;;5094177;28;20203;-58
2023/03/29 04:33:36;;;;;;;5.20;2.10;;;19.40;50.90;;;;;;5091737;28;20183;-54
2023/03/29 04:36:08;;;;;;;4.45;2.30;;;19.40;50.80;;;;;;5072831;28;20679;-55
2023/03/29 04:38:40;;;;;;;5.00;2.40;;;19.40;50.80;;;;;;5079692;28;20206;-55
2023/03/29 04:41:12;;;;;;;4.18;2.20;;;19.40;50.70;;;;;;5092658;28;20198;-57
2023/03/29 04:43:45;;;;;;;4.32;2.15;;;19.40;50.70;;;;;;5089145;28;20268;-56
2023/03/29 04:46:16;;;;;;;4.30;1.98;;;19.40;50.70;;;;;;5114517;28;20233;-56
2023/03/29 04:48:49;;;;;;;4.97;2.40;;;19.40;50.60;;;;;;5112574;28;20209;-55
2023/03/29 04:51:20;;;;;;;2.65;1.70;;;19.40;50.50;;;;;;5113033;28;20645;-54
2023/03/29 04:53:52;;;;;;;2.83;1.92;;;19.40;50.50;;;;;;5102998;28;20183;-56
2023/03/29 04:56:22;;;;;;;4.30;2.40;;;19.40;50.50;;;;;;5086886;28;20203;-56
2023/03/29 04:58:53;;;;;;;4.63;2.28;;;19.40;50.50;;;;;;5080331;28;20263;-55
2023/03/29 05:01:24;;;;;;;8.35;2.28;;;19.40;50.40;;;;;;5093349;28;20201;-55
2023/03/29 05:03:56;;;;;;;4.20;1.75;;;19.40;50.40;;;;;;5093291;28;20649;-56
2023/03/29 05:06:28;;;;;;;4.22;1.73;;;19.40;50.40;;;;;;5093074;28;20194;-53
2023/03/29 05:08:59;;;;;;;3.95;2.28;;;19.30;50.30;;;;;;5092408;28;20206;-56
2023/03/29 05:11:30;;;;;;;3.42;1.92;;;19.30;50.30;;;;;;5092346;28;20194;-56
2023/03/29 05:14:02;;;;;;;4.57;1.90;;;19.30;50.30;;;;;;5092630;28;20198;-54
2023/03/29 05:16:33;;;;;;;5.43;2.17;;;19.30;50.40;;;;;;5092780;28;20204;-56
2023/03/29 05:19:05;;;;;;;3.13;1.70;;;19.30;50.40;;;;;;5091873;28;20730;-54
2023/03/29 05:21:36;;;;;;;7.03;1.98;;;19.30;50.30;;;;;;5092124;28;20622;-57
2023/03/29 05:24:07;;;;;;;3.58;2.13;;;19.30;50.30;;;;;;5092180;28;20190;-56
2023/03/29 05:26:38;;;;;;;4.25;2.00;;;19.20;50.30;;;;;;5085384;28;20207;-56
2023/03/29 05:29:09;;;;;;;5.00;1.85;;;19.20;50.80;;;;;;5079648;28;20222;-56
2023/03/29 05:31:40;;;;;;;2.75;1.80;;;19.20;50.30;;;;;;5092346;28;20198;-55
2023/03/29 05:34:12;;;;;;;3.45;1.70;;;19.20;50.20;;;;;;5092063;28;20685;-56
2023/03/29 05:36:44;;;;;;;2.13;1.75;;;19.20;50.20;;;;;;5092411;28;20216;-56
2023/03/29 05:39:15;;;;;;;4.53;2.03;;;19.20;50.20;;;;;;5091913;28;20224;-55
2023/03/29 05:41:45;;;;;;;3.92;2.10;;;19.20;50.20;;;;;;5090480;28;20198;-55
2023/03/29 05:44:16;;;;;;;3.65;1.80;;;19.20;50.20;;;;;;5079653;28;20202;-56
2023/03/29 05:46:47;;;;;;;4.93;2.20;;;19.20;50.20;;;;;;5091976;28;20201;-55
2023/03/29 05:49:20;;;;;;;3.90;1.95;;;19.10;50.20;;;;;;5091910;28;20221;-55
2023/03/29 05:51:51;;;;;;;3.70;1.83;;;19.10;50.10;;;;;;5091089;28;20668;-57
2023/03/29 05:54:22;;;;;;;3.40;1.80;;;19.10;50.10;;;;;;5092150;28;20190;-56
2023/03/29 05:56:52;;;;;;;3.08;1.75;;;19.10;50.10;;;;;;5082018;28;20765;-57
2023/03/29 05:59:23;;;;;;;2.60;1.58;;;19.00;50.00;;;;;;5078034;28;20722;-56
2023/03/29 06:01:54;;;;;;;5.20;2.17;;;19.00;50.10;;;;;;5088109;28;20195;-56
2023/03/29 06:04:26;;;;;;;4.70;1.95;;;19.00;50.10;;;;;;5073882;28;20667;-56
2023/03/29 06:06:59;;;;;;;4.38;2.10;;;19.10;50.10;;;;;;5079433;28;20708;-55
2023/03/29 06:09:29;;;;;;;3.10;1.75;;;19.00;50.10;;;;;;5084153;28;20224;-56
2023/03/29 06:12:00;;;;;;;3.40;1.90;;;19.00;50.10;;;;;;5080826;28;20190;-56
2023/03/29 06:14:31;;;;;;;3.47;1.98;;;19.00;50.10;;;;;;5079085;28;20684;-56
2023/03/29 06:17:02;;;;;;;3.13;1.80;;;18.90;50.00;;;;;;5080624;28;20634;-56
2023/03/29 06:19:35;;;;;;;3.55;1.73;;;19.00;50.10;;;;;;5077964;28;20246;-56
2023/03/29 06:22:06;;;;;;;2.53;1.70;;;18.90;50.10;;;;;;5077889;28;20194;-55
2023/03/29 06:24:37;;;;;;;3.35;1.88;;;18.90;50.10;;;;;;5079191;28;20185;-56
2023/03/29 06:27:08;;;;;;;3.33;2.03;;;18.90;50.10;;;;;;5079882;28;20264;-56
2023/03/29 06:29:39;;;;;;;3.33;1.92;;;18.90;50.10;;;;;;5081030;28;20249;-57
2023/03/29 06:32:09;;;;;;;4.18;2.00;;;18.80;50.10;;;;;;5082461;28;20193;-57
2023/03/29 06:34:42;;;;;;;5.55;2.10;;;18.80;50.10;;;;;;5081335;28;20224;-56
2023/03/29 06:37:13;;;;;;;3.22;1.80;;;18.80;50.10;;;;;;5080758;28;20206;-56
2023/03/29 06:39:43;;;;;;;2.58;1.73;;;18.80;50.10;;;;;;5080265;28;20590;-56
2023/03/29 06:42:14;;;;;;;2.28;1.58;;;18.80;50.00;;;;;;5080964;28;20206;-56
2023/03/29 06:44:45;;;;;;;3.45;1.83;;;18.80;50.00;;;;;;5079946;28;20240;-56
2023/03/29 06:47:16;;;;;;;2.78;1.67;;;18.80;50.10;;;;;;5080176;28;20286;-55
2023/03/29 06:49:49;;;;;;;3.50;1.73;;;18.70;50.10;;;;;;5079420;28;20225;-56
2023/03/29 06:52:19;;;;;;;3.40;1.80;;;18.70;50.10;;;;;;5083049;28;20190;-56
2023/03/29 06:54:50;;;;;;;2.53;1.65;;;18.70;50.10;;;;;;5085692;28;20221;-56
2023/03/29 06:57:21;;;;;;;2.60;1.63;;;18.70;50.00;;;;;;5091586;28;20206;-57
2023/03/29 06:59:54;;;;;;;3.42;1.52;;;18.60;50.10;;;;;;5091592;28;20301;-56
2023/03/29 07:02:25;;;;;;;2.53;1.80;;;18.60;50.10;;;;;;5091678;28;20205;-54
2023/03/29 07:04:57;;;;;;;3.03;1.63;;;18.60;50.10;;;;;;5091172;28;20194;-56
2023/03/29 07:07:42;;;;;;;2.85;1.55;;;18.60;50.10;;;;;;5091413;28;20198;-56
2023/03/29 07:10:13;;;;;;;2.83;1.70;;;18.60;50.00;;;;;;5090732;28;20238;-56
2023/03/29 07:12:45;;;;;;;3.67;1.77;;;18.60;50.10;;;;;;5091049;28;20204;-56
2023/03/29 07:15:15;;;;;;;2.72;1.60;;;18.60;50.10;;;;;;5091269;28;20203;-56
2023/03/29 07:17:46;;;;;;;2.17;1.60;;;18.50;50.00;;;;;;5090846;28;20563;-56
2023/03/29 07:20:20;;;;;;;2.17;1.50;;;18.50;50.00;;;;;;5090960;28;20214;-56
2023/03/29 07:22:52;;;;;;;2.20;1.60;;;18.50;50.00;;;;;;5091110;28;20193;-56
2023/03/29 07:25:24;;;;;;;3.28;1.60;;;18.50;50.00;;;;;;5091420;28;20670;-55
2023/03/29 07:27:55;;;;;;;2.15;1.60;;;18.50;50.00;;;;;;5091164;28;20202;-56
2023/03/29 07:30:28;;;;;;;2.92;1.80;;;18.50;50.00;;;;;;5090789;28;20226;-56
2023/03/29 07:32:59;;;;;;;3.25;1.40;;;18.50;50.00;;;;;;5091293;28;20197;-55
2023/03/29 07:35:31;;;;;;;2.45;1.40;;;18.50;50.10;;;;;;5091057;28;20205;-55
2023/03/29 07:38:02;;;;;;;2.50;1.42;;;18.40;50.00;;;;;;5090550;28;20370;-56
2023/03/29 07:40:33;;;;;;;3.83;1.75;;;18.40;50.00;;;;;;5090768;28;20611;-56
2023/03/29 07:43:07;;;;;;;2.67;1.38;;;18.40;50.00;;;;;;5091227;28;20545;-56
2023/03/29 07:45:39;;;;;;;3.58;1.50;;;18.40;50.10;;;;;;5091006;28;20646;-55
2023/03/29 07:48:10;;;;;;;1.85;1.65;;;18.40;50.10;;;;;;5091180;28;20248;-56
2023/03/29 07:50:42;;;;;;;3.28;1.52;;;18.40;50.10;;;;;;5090866;28;20218;-56
2023/03/29 07:53:13;;;;;;;2.72;1.48;;;18.30;50.00;;;;;;5090588;28;20198;-57
2023/03/29 07:55:46;;;;;;;3.45;1.30;;;18.30;50.10;;;;;;5090576;28;20207;-56
2023/03/29 07:58:16;;;;;;;2.83;1.58;;;18.30;50.10;;;;;;5090357;28;20218;-56
2023/03/29 08:00:47;;;;;;;2.28;1.45;;;18.30;50.10;;;;;;5091021;28;20213;-56
2023/03/29 08:03:18;;;;;;;2.45;1.52;;;18.30;50.10;;;;;;5090759;28;20635;-56
2023/03/29 08:05:51;;;;;;;2.13;1.40;;;18.30;50.10;;;;;;5090831;28;20191;-56
2023/03/29 08:08:21;;;;;;;2.17;1.70;;;18.20;50.10;;;;;;5091082;28;20218;-57
2023/03/29 08:10:52;;;;;;;2.55;1.75;;;18.30;50.10;;;;;;5090994;28;20230;-56
2023/03/29 08:13:23;;;;;;;3.28;1.50;;;18.30;50.10;;;;;;5090746;28;20234;-57
2023/03/29 08:15:54;;;;;;;2.60;1.63;;;18.20;50.10;;;;;;5080314;28;20888;-55
2023/03/29 08:18:25;;;;;;;3.00;1.48;;;18.20;50.10;;;;;;5073734;28;20246;-56
2023/03/29 08:20:57;;;;;;;1.92;1.52;;;18.20;50.20;;;;;;5073463;28;20202;-56
2023/03/29 08:23:28;;;;;;;3.47;1.70;;;18.20;50.20;;;;;;5076370;28;20194;-55
2023/03/29 08:25:58;;;;;;;2.13;1.60;;;18.10;50.10;;;;;;5075932;28;20191;-56
2023/03/29 08:28:29;;;;;;;2.35;1.40;;;18.10;50.10;;;;;;5093949;28;20218;-57
2023/03/29 08:31:00;;;;;;;1.67;1.52;;;18.10;50.10;;;;;;5094363;28;20705;-57
2023/03/29 08:33:30;;;;;;;2.88;1.50;;;18.10;50.20;;;;;;5094232;28;20540;-57
2023/03/29 08:36:03;;;;;;;3.05;1.60;;;18.10;50.20;;;;;;5094458;28;20247;-55
2023/03/29 08:38:34;;;;;;;2.28;1.50;;;18.10;50.20;;;;;;5094137;28;20214;-55
2023/03/29 08:41:16;;;;;;;2.78;1.83;;;18.10;50.20;;;;;;5094288;28;20197;-56
2023/03/29 08:44:00;;;;;;;1.98;1.52;;;18.00;50.10;;;;;;5093746;28;20224;-57
2023/03/29 08:46:41;;;;;;;2.90;1.60;;;18.00;50.10;;;;;;5093435;28;20289;-55
2023/03/29 08:49:13;;;;;;;2.13;1.30;;;18.00;50.10;;;;;;5094259;28;20300;-56
2023/03/29 08:51:51;;;;;;;2.58;1.60;;;18.00;50.10;;;;;;5093833;28;20267;-56
2023/03/29 08:54:26;;;;;;;2.35;1.33;;;18.00;50.10;;;;;;5093645;28;20196;-57
2023/03/29 08:57:04;;;;;;;2.90;1.58;;;17.90;50.10;;;;;;5083604;28;20198;-56
2023/03/29 08:59:35;;;;;;;3.30;1.35;;;17.90;50.10;;;;;;5073391;28;20214;-56
2023/03/29 09:02:14;;;;;;;2.10;1.70;;;17.90;50.10;;;;;;5076902;28;20195;-56
2023/03/29 09:04:44;;;;;;;2.17;1.67;;;17.90;50.20;;;;;;5074153;28;20206;-56
2023/03/29 09:07:17;;;;;;;2.08;1.50;;;17.90;50.20;;;;;;5092455;28;20190;-55
2023/03/29 09:09:48;;;;;;;2.58;1.60;;;17.90;50.20;;;;;;5093413;28;20709;-56
2023/03/29 09:12:31;;;;;;;2.47;1.63;;;17.80;50.10;;;;;;5092631;28;21184;-55
2023/03/29 09:15:13;;;;;;;3.10;1.88;;;17.80;50.20;;;;;;5092257;28;20680;-56
2023/03/29 09:17:54;;;;;;;2.92;1.70;;;17.80;50.20;;;;;;5084500;28;20186;-55
2023/03/29 09:20:36;;;;;;;2.40;1.60;;;17.80;50.20;;;;;;5079950;28;20265;-55
2023/03/29 09:23:30;;;;;;;3.08;1.92;;;17.80;50.20;;;;;;5082656;28;20406;-55
2023/03/29 09:26:08;;;;;;;1.73;1.30;;;17.80;50.20;;;;;;5079049;28;20183;-51
2023/03/29 09:28:42;;;;;;;2.75;1.40;;;17.80;50.10;;;;;;5092675;28;20214;-54
2023/03/29 09:31:17;;;;;;;2.55;1.40;;;17.80;50.10;;;;;;5091888;28;20282;-56
2023/03/29 09:33:53;;;;;;;2.63;1.90;;;17.70;50.10;;;;;;5092838;28;20197;-55
2023/03/29 09:36:29;;;;;;;3.45;1.65;;;17.70;50.10;;;;;;5072263;28;20186;-55
2023/03/29 09:39:02;;;;;;;2.50;1.42;;;17.70;50.10;;;;;;5071875;28;20583;-55
2023/03/29 09:41:37;;;;;;;2.55;1.55;;;17.70;50.20;;;;;;5072220;28;20199;-55
2023/03/29 09:44:11;;;;;;;1.83;1.60;;;17.60;50.10;;;;;;5072379;28;20190;-56
2023/03/29 09:46:43;;;;;;;3.20;1.90;;;17.70;50.20;;;;;;5092240;28;20189;-57
2023/03/29 09:49:17;;;;;;;4.38;2.00;;;17.60;50.10;;;;;;5091450;28;20214;-55
2023/03/29 09:51:51;;;;;;;2.67;1.60;;;17.60;50.20;;;;;;5092045;28;20651;-56
2023/03/29 09:54:24;;;;;;;2.92;1.80;;;17.60;50.20;;;;;;5090372;28;20190;-56
2023/03/29 09:56:55;;;;;;;1.98;1.48;;;17.60;50.20;;;;;;5092848;28;20203;-55
2023/03/29 09:59:26;;;;;;;1.52;1.30;;;17.60;50.20;;;;;;5073716;28;20233;-55
2023/03/29 10:02:06;;;;;;;2.30;1.40;;;17.60;50.20;;;;;;5091226;28;20198;-56
2023/03/29 10:04:37;;;;;;;2.22;1.27;;;17.60;50.20;;;;;;5091987;28;20189;-56
2023/03/29 10:07:09;;;;;;;2.45;1.65;;;17.60;50.20;;;;;;5092984;28;20198;-56
2023/03/29 10:09:43;;;;;;;1.95;1.45;;;17.60;50.20;;;;;;5091186;28;20220;-56
2023/03/29 10:12:15;;;;;;;2.10;1.45;;;17.60;50.20;;;;;;5091480;28;20883;-56
2023/03/29 10:14:47;;;;;;;2.13;1.45;;;17.50;50.10;;;;;;5092153;28;20194;-56
2023/03/29 10:17:22;;;;;;;2.50;1.60;;;17.50;50.20;;;;;;5090055;28;20197;-55
2023/03/29 10:19:54;;;;;;;1.92;1.38;;;17.50;50.20;;;;;;5076524;28;20205;-56
2023/03/29 10:22:27;;;;;;;2.30;1.60;;;17.50;50.20;;;;;;5091684;28;20198;-54
2023/03/29 10:25:00;;;;;;;1.83;1.35;;;17.50;50.20;;;;;;5089943;28;20201;-54
2023/03/29 10:27:33;;;;;;;3.08;1.60;;;17.50;50.20;;;;;;5071009;28;20198;-54
2023/03/29 10:30:12;;;;;;;2.08;1.45;;;17.50;50.20;;;;;;5077280;28;20249;-56
2023/03/29 10:32:43;;;;;;;3.25;1.52;;;17.50;50.20;;;;;;5091093;28;20244;-56
2023/03/29 10:35:19;;;;;;;1.88;1.33;;;17.50;50.20;;;;;;5091027;28;20201;-56
2023/03/29 10:37:57;;;;;;;1.55;1.40;;;17.50;50.20;;;;;;5090678;28;20201;-56
2023/03/29 10:40:33;;;;;;;2.15;1.50;;;17.50;50.20;;;;;;5091165;28;20194;-54
2023/03/29 10:43:13;;;;;;;2.15;1.33;;;17.40;50.20;;;;;;5090570;28;20194;-56
2023/03/29 10:45:44;;;;;;;2.47;1.50;;;17.50;50.20;;;;;;5091745;28;20193;-55
2023/03/29 10:48:18;;;;;;;2.47;1.23;;;17.40;50.20;;;;;;5090993;28;20716;-54
2023/03/29 10:50:53;;;;;;;1.30;1.20;;;17.40;50.20;;;;;;5091419;28;20317;-56
2023/03/29 10:53:27;;;;;;;1.73;1.35;;;17.40;50.20;;;;;;5091494;28;20461;-55
2023/03/29 10:56:14;;;;;;;1.95;1.38;;;17.40;50.20;;;;;;5087485;28;20187;-52
2023/03/29 10:58:58;;;;;;;2.03;1.33;;;17.40;50.20;;;;;;5080576;28;20218;-54
2023/03/29 11:01:36;;;;;;;1.85;1.02;;;17.40;50.20;;;;;;5078445;28;20190;-55
2023/03/29 11:04:18;;;;;;;2.60;1.33;;;17.40;50.20;;;;;;5076970;28;20650;-55
2023/03/29 11:06:55;;;;;;;2.03;1.10;;;17.40;50.20;;;;;;5080068;28;20191;-55
2023/03/29 11:09:39;;;;;;;3.30;1.75;;;17.40;50.20;;;;;;5078806;28;20297;-55
2023/03/29 11:12:19;;;;;;;2.15;1.33;;;17.30;50.10;;;;;;5079347;28;20226;-55
2023/03/29 11:15:05;;;;;;;2.35;1.20;;;17.30;50.10;;;;;;5079392;28;20190;-51
2023/03/29 11:17:49;;;;;;;2.58;1.42;;;17.40;50.20;;;;;;5079930;28;20199;-54
2023/03/29 11:20:30;;;;;;;2.28;1.30;;;17.30;50.10;;;;;;5080993;28;20246;-52
2023/03/29 11:23:09;;;;;;;1.90;1.40;;;17.30;50.10;;;;;;5070292;28;20195;-56
2023/03/29 11:25:47;;;;;;;3.17;1.23;;;17.30;50.10;;;;;;5070667;28;20190;-52
2023/03/29 11:28:25;;;;;;;2.13;1.20;;;17.30;50.10;;;;;;5070644;28;20690;-56
2023/03/29 11:31:03;;;;;;;2.05;1.13;;;17.30;50.10;;;;;;5070504;28;20620;-56
2023/03/29 11:33:48;;;;;;;2.05;1.30;;;17.30;50.10;;;;;;5071317;28;20191;-55
2023/03/29 11:36:22;;;;;;;2.40;1.17;;;17.30;50.10;;;;;;5071227;28;20540;-52
2023/03/29 11:39:03;;;;;;;2.25;1.27;;;17.20;50.10;;;;;;5070533;28;20221;-53
2023/03/29 11:41:36;;;;;;;2.88;1.45;;;17.20;50.10;;;;;;5070813;28;20199;-54
2023/03/29 11:44:14;;;;;;;2.10;1.20;;;17.20;50.10;;;;;;5070889;28;20563;-55
2023/03/29 11:46:49;;;;;;;2.40;1.40;;;17.20;50.10;;;;;;5071014;28;20199;-56
2023/03/29 11:49:25;;;;;;;1.80;1.20;;;17.20;50.10;;;;;;5070072;28;20232;-54
2023/03/29 11:52:00;;;;;;;2.55;1.10;;;17.20;50.70;;;;;;5074093;28;20226;-55
2023/03/29 11:54:35;;;;;;;2.75;1.25;;;17.20;50.10;;;;;;5074295;28;20194;-55
2023/03/29 11:57:13;;;;;;;1.65;1.20;;;17.20;50.10;;;;;;5074357;28;20194;-55
2023/03/29 11:59:51;;;;;;;2.15;0.98;;;17.20;50.10;;;;;;5074338;28;20262;-56
2023/03/29 12:02:26;;;;;;;2.45;1.27;;;17.20;50.10;;;;;;5074641;28;20199;-56
2023/03/29 12:05:00;;;;;;;2.15;1.20;;;17.20;50.10;;;;;;5074698;28;20202;-54
2023/03/29 12:07:37;;;;;;;1.60;1.30;;;17.20;50.10;;;;;;5088106;28;20187;-56
2023/03/29 12:10:16;;;;;;;2.55;1.13;;;17.20;50.10;;;;;;5094690;28;20217;-54
2023/03/29 12:12:52;;;;;;;2.83;1.50;;;17.20;50.10;;;;;;5094922;28;20222;-55
2023/03/29 12:15:27;;;;;;;1.35;0.90;;;17.10;50.00;;;;;;5094851;28;20213;-54
2023/03/29 12:18:07;;;;;;;1.55;1.10;;;17.10;50.00;;;;;;5094647;28;20197;-55
2023/03/29 12:20:40;;;;;;;1.88;1.00;;;17.10;50.10;;;;;;5094387;28;20225;-51
2023/03/29 12:23:15;;;;;;;1.80;1.08;;;17.10;50.00;;;;;;5094602;28;20243;-54
2023/03/29 12:25:54;;;;;;;1.88;1.02;;;17.10;50.00;;;;;;5090533;28;20193;-54
2023/03/29 12:28:41;;;;;;;1.48;1.10;;;17.10;50.00;;;;;;5073972;28;20214;-54
2023/03/29 12:31:21;;;;;;;2.00;1.10;;;17.10;50.10;;;;;;5073557;28;20233;-55
2023/03/29 12:34:22;;;;;;;1.65;1.40;;;17.10;50.10;;;;;;5074034;28;20206;-56
2023/03/29 12:37:16;;;;;;;2.42;1.10;;;17.10;50.00;;;;;;5074216;28;20575;-54
2023/03/29 12:39:47;;;;;;;2.85;1.10;;;17.10;50.00;;;;;;5072183;28;20268;-56
2023/03/29 12:42:20;;;;;;;1.67;1.20;;;17.10;50.60;;;;;;5073758;28;20203;-56
2023/03/29 12:44:58;;;;;;;2.40;1.40;;;17.10;50.00;;;;;;5073048;28;20206;-56
2023/03/29 12:47:41;;;;;;;2.00;1.25;;;17.10;50.00;;;;;;5073344;28;20234;-57
2023/03/29 12:50:25;;;;;;;1.33;1.00;;;17.10;50.00;;;;;;5074116;28;20264;-56
2023/03/29 12:53:03;;;;;;;2.17;1.40;;;17.00;50.00;;;;;;5074023;28;20643;-57
2023/03/29 12:55:48;;;;;;;3.40;1.10;;;17.00;50.00;;;;;;5073641;28;20256;-55
2023/03/29 12:58:29;;;;;;;1.90;0.95;;;17.00;50.00;;;;;;5073695;28;20258;-56
2023/03/29 13:01:08;;;;;;;1.88;1.00;;;17.00;50.00;;;;;;5073155;28;20689;-56
2023/03/29 13:03:49;;;;;;;1.73;1.00;;;17.00;50.00;;;;;;5073102;28;20205;-56
2023/03/29 13:06:31;;;;;;;2.85;1.20;;;17.00;50.00;;;;;;5085740;28;20194;-60
2023/03/29 13:09:04;;;;;;;2.00;1.17;;;17.00;50.00;;;;;;5092601;28;20218;-55
2023/03/29 13:11:40;;;;;;;1.80;1.10;;;17.00;50.00;;;;;;5092876;28;20268;-55
2023/03/29 13:14:18;;;;;;;1.65;1.13;;;17.00;50.60;;;;;;5093584;28;20282;-56
2023/03/29 13:16:49;;;;;;;1.90;1.17;;;17.00;50.00;;;;;;5093295;28;20204;-54
2023/03/29 13:19:32;;;;;;;1.63;1.10;;;17.00;50.00;;;;;;5092859;28;20236;-55